createdAt,value
2022-11-12T00:00:47.388Z,3.40
2022-11-12T00:03:13.869Z,4.47
2022-11-12T00:05:40.366Z,3.80
2022-11-12T00:08:06.831Z,3.25
2022-11-12T00:10:33.548Z,3.58
2022-11-12T00:13:00.221Z,3.60
2022-11-12T00:15:26.828Z,3.30
2022-11-12T00:17:53.544Z,3.10
2022-11-12T00:20:20.479Z,3.45
2022-11-12T00:22:46.942Z,3.13
2022-11-12T00:25:13.722Z,3.47
2022-11-12T00:27:40.166Z,3.60
2022-11-12T00:30:07.622Z,3.10
2022-11-12T00:32:37.631Z,3.05
2022-11-12T00:35:07.726Z,3.40
2022-11-12T00:37:36.431Z,3.43
2022-11-12T00:40:03.274Z,3.67
2022-11-12T00:42:29.736Z,4.05
2022-11-12T00:44:56.120Z,3.28
2022-11-12T00:47:22.590Z,3.08
2022-11-12T00:49:49.077Z,2.90
2022-11-12T00:52:15.524Z,2.83
2022-11-12T00:54:42.062Z,3.20
2022-11-12T00:57:08.559Z,2.83
2022-11-12T00:59:34.988Z,2.55
2022-11-12T01:02:01.639Z,3.27
2022-11-12T01:04:28.053Z,3.08
2022-11-12T01:06:54.554Z,2.90
2022-11-12T01:09:21.050Z,2.60
2022-11-12T01:11:48.171Z,2.70
2022-11-12T01:14:14.743Z,2.80
2022-11-12T01:16:42.979Z,2.88
2022-11-12T01:19:11.149Z,2.67
2022-11-12T01:21:41.084Z,2.75
2022-11-12T01:24:09.003Z,3.63
2022-11-12T01:26:35.754Z,3.20
2022-11-12T01:29:02.989Z,3.22
2022-11-12T01:31:32.503Z,2.75
2022-11-12T01:34:01.463Z,3.30
2022-11-12T01:36:31.156Z,3.13
2022-11-12T01:38:57.601Z,3.43
2022-11-12T01:41:26.857Z,3.28
2022-11-12T01:44:20.410Z,3.20
2022-11-12T01:47:17.617Z,3.10
2022-11-12T01:49:54.161Z,3.38
2022-11-12T01:52:35.044Z,4.27
2022-11-12T01:55:09.781Z,4.00
2022-11-12T01:57:43.267Z,3.15
2022-11-12T02:00:12.739Z,3.13
2022-11-12T02:02:40.497Z,3.35
2022-11-12T02:05:10.548Z,4.10
2022-11-12T02:07:39.467Z,3.38
2022-11-12T02:10:07.836Z,2.92
2022-11-12T02:12:53.469Z,2.95
2022-11-12T02:15:20.063Z,3.22
2022-11-12T02:17:46.675Z,3.00
2022-11-12T02:20:14.557Z,3.20
2022-11-12T02:22:41.023Z,3.33
2022-11-12T02:25:10.787Z,3.88
2022-11-12T02:27:37.255Z,4.28
2022-11-12T02:30:04.084Z,3.80
2022-11-12T02:32:30.620Z,4.15
2022-11-12T02:34:57.047Z,4.07
2022-11-12T02:37:23.455Z,3.92
2022-11-12T02:39:49.948Z,4.78
2022-11-12T02:42:16.328Z,2.60
2022-11-12T02:44:42.964Z,3.33
2022-11-12T02:47:09.437Z,4.03
2022-11-12T02:49:35.856Z,3.60
2022-11-12T02:52:02.271Z,3.15
2022-11-12T02:54:28.776Z,3.60
2022-11-12T02:56:55.237Z,3.50
2022-11-12T02:59:21.799Z,4.22
2022-11-12T03:01:48.195Z,3.70
2022-11-12T03:04:14.619Z,3.95
2022-11-12T03:06:41.141Z,4.20
2022-11-12T03:09:07.763Z,4.25
2022-11-12T03:11:34.309Z,4.60
2022-11-12T03:14:02.030Z,3.83
2022-11-12T03:16:28.456Z,4.50
2022-11-12T03:18:54.882Z,3.97
2022-11-12T03:21:21.409Z,4.32
2022-11-12T03:23:47.817Z,4.30
2022-11-12T03:26:14.300Z,4.03
2022-11-12T03:28:40.695Z,3.70
2022-11-12T03:31:07.202Z,4.00
2022-11-12T03:33:33.612Z,4.22
2022-11-12T03:36:00.045Z,4.07
2022-11-12T03:38:26.750Z,3.95
2022-11-12T03:40:53.513Z,4.57
2022-11-12T03:43:19.994Z,3.97
2022-11-12T03:45:46.481Z,4.18
2022-11-12T03:48:12.928Z,4.03
2022-11-12T03:50:39.333Z,3.97
2022-11-12T03:53:05.983Z,4.30
2022-11-12T03:55:32.555Z,4.70
2022-11-12T03:57:59.277Z,4.22
2022-11-12T04:00:27.236Z,3.65
2022-11-12T04:02:53.887Z,3.83
2022-11-12T04:05:38.853Z,3.88
2022-11-12T04:08:27.080Z,3.63
2022-11-12T04:10:54.176Z,3.80
2022-11-12T04:13:29.715Z,4.30
2022-11-12T04:16:34.011Z,4.88
2022-11-12T04:19:20.760Z,4.75
2022-11-12T04:21:56.062Z,4.83
2022-11-12T04:24:42.483Z,5.35
2022-11-12T04:27:18.565Z,4.68
2022-11-12T04:30:04.733Z,4.97
2022-11-12T04:32:34.213Z,5.00
2022-11-12T04:35:01.481Z,5.40
2022-11-12T04:37:44.265Z,4.32
2022-11-12T04:40:40.628Z,4.65
2022-11-12T04:43:29.305Z,4.28
2022-11-12T04:45:56.214Z,5.00
2022-11-12T04:48:24.531Z,5.17
2022-11-12T04:50:58.042Z,5.30
2022-11-12T04:53:26.497Z,5.97
2022-11-12T04:55:55.090Z,5.53
2022-11-12T04:58:22.194Z,5.25
2022-11-12T05:00:50.634Z,6.10
2022-11-12T05:03:17.699Z,5.90
2022-11-12T05:05:44.179Z,4.53
2022-11-12T05:08:10.667Z,5.65
2022-11-12T05:10:37.136Z,5.22
2022-11-12T05:13:03.568Z,5.67
2022-11-12T05:15:30.223Z,4.65
2022-11-12T05:17:57.063Z,4.13
2022-11-12T05:20:23.508Z,5.35
2022-11-12T05:23:05.099Z,4.90
2022-11-12T05:25:32.484Z,5.33
2022-11-12T05:27:58.917Z,4.78
2022-11-12T05:30:25.343Z,5.00
2022-11-12T05:32:51.781Z,4.90
2022-11-12T05:35:18.356Z,4.88
2022-11-12T05:37:44.873Z,4.50
2022-11-12T05:40:12.022Z,4.90
2022-11-12T05:42:38.433Z,5.22
2022-11-12T05:45:05.599Z,5.10
2022-11-12T05:47:32.048Z,5.10
2022-11-12T05:49:58.451Z,4.93
2022-11-12T05:52:24.856Z,5.00
2022-11-12T05:54:51.303Z,4.90
2022-11-12T05:57:17.744Z,5.25
2022-11-12T05:59:44.297Z,4.88
2022-11-12T06:02:10.779Z,4.93
2022-11-12T06:04:37.397Z,4.65
2022-11-12T06:07:04.202Z,5.03
2022-11-12T06:09:30.889Z,4.47
2022-11-12T06:11:57.352Z,5.35
2022-11-12T06:14:23.824Z,5.27
2022-11-12T06:16:50.319Z,5.07
2022-11-12T06:19:16.782Z,5.18
2022-11-12T06:21:43.239Z,4.85
2022-11-12T06:24:10.185Z,5.20
2022-11-12T06:26:37.973Z,5.20
2022-11-12T06:29:04.472Z,5.25
2022-11-12T06:31:31.035Z,4.82
2022-11-12T06:33:57.457Z,5.25
2022-11-12T06:36:24.583Z,4.88
2022-11-12T06:38:51.100Z,4.83
2022-11-12T06:41:17.583Z,5.47
2022-11-12T06:43:44.099Z,5.90
2022-11-12T06:46:16.305Z,5.13
2022-11-12T06:48:42.836Z,5.15
2022-11-12T06:51:19.856Z,5.13
2022-11-12T06:53:46.592Z,5.30
2022-11-12T06:56:13.468Z,5.72
2022-11-12T06:58:40.704Z,5.32
2022-11-12T07:01:12.854Z,5.55
2022-11-12T07:03:41.786Z,4.93
2022-11-12T07:06:11.150Z,4.15
2022-11-12T07:08:38.846Z,5.50
2022-11-12T07:11:06.401Z,5.05
2022-11-12T07:13:35.227Z,4.70
2022-11-12T07:16:02.854Z,5.30
2022-11-12T07:18:30.271Z,5.43
2022-11-12T07:21:08.411Z,5.03
2022-11-12T07:23:36.597Z,5.15
2022-11-12T07:26:12.421Z,5.57
2022-11-12T07:28:38.910Z,5.67
2022-11-12T07:31:07.643Z,5.72
2022-11-12T07:33:34.760Z,5.72
2022-11-12T07:36:06.716Z,5.57
2022-11-12T07:38:35.740Z,4.80
2022-11-12T07:41:07.681Z,5.17
2022-11-12T07:43:35.605Z,5.38
2022-11-12T07:46:14.384Z,5.40
2022-11-12T07:48:41.225Z,5.35
2022-11-12T07:51:13.852Z,5.15
2022-11-12T07:53:40.906Z,4.83
2022-11-12T07:56:07.836Z,5.88
2022-11-12T07:58:34.807Z,5.57
2022-11-12T08:01:34.357Z,4.85
2022-11-12T08:04:02.335Z,4.50
2022-11-12T08:06:30.470Z,5.10
2022-11-12T08:08:58.531Z,5.53
2022-11-12T08:11:25.410Z,5.20
2022-11-12T08:13:52.280Z,5.07
2022-11-12T08:16:19.002Z,5.63
2022-11-12T08:18:46.332Z,5.43
2022-11-12T08:21:14.856Z,5.35
2022-11-12T08:23:41.870Z,5.82
2022-11-12T08:26:11.753Z,5.82
2022-11-12T08:28:39.172Z,6.85
2022-11-12T08:31:11.415Z,7.20
2022-11-12T08:33:38.372Z,7.65
2022-11-12T08:36:07.140Z,8.13
2022-11-12T08:38:33.644Z,7.47
2022-11-12T08:41:05.009Z,8.13
2022-11-12T08:43:31.538Z,7.80
2022-11-12T08:46:00.019Z,7.63
2022-11-12T08:48:28.541Z,7.88
2022-11-12T08:50:55.168Z,7.97
2022-11-12T08:53:23.126Z,7.28
2022-11-12T08:55:53.977Z,8.00
2022-11-12T08:58:20.485Z,9.07
2022-11-12T09:00:47.105Z,7.60
2022-11-12T09:03:16.264Z,7.13
2022-11-12T09:05:43.720Z,7.53
2022-11-12T09:08:14.523Z,7.00
2022-11-12T09:10:41.326Z,7.05
2022-11-12T09:13:07.928Z,6.35
2022-11-12T09:15:38.777Z,6.88
2022-11-12T09:18:08.387Z,7.10
2022-11-12T09:20:34.990Z,7.57
2022-11-12T09:23:07.081Z,7.47
2022-11-12T09:25:34.208Z,7.35
2022-11-12T09:28:08.931Z,7.30
2022-11-12T09:30:36.502Z,7.00
2022-11-12T09:33:02.955Z,7.07
2022-11-12T09:35:30.053Z,7.63
2022-11-12T09:37:58.299Z,7.93
2022-11-12T09:40:36.465Z,7.63
2022-11-12T09:43:11.934Z,7.75
2022-11-12T09:45:38.739Z,6.70
2022-11-12T09:48:13.036Z,7.53
2022-11-12T09:50:49.132Z,7.20
2022-11-12T09:53:34.307Z,7.38
2022-11-12T09:56:05.357Z,7.53
2022-11-12T09:58:31.812Z,7.27
2022-11-12T10:01:07.233Z,6.65
2022-11-12T10:03:42.697Z,7.03
2022-11-12T10:06:19.162Z,7.22
2022-11-12T10:08:54.928Z,7.22
2022-11-12T10:12:08.001Z,6.87
2022-11-12T10:15:34.064Z,7.45
2022-11-12T10:18:08.180Z,6.50
2022-11-12T10:20:43.293Z,6.93
2022-11-12T10:23:17.624Z,7.05
2022-11-12T10:25:47.500Z,6.97
2022-11-12T10:28:27.314Z,7.13
2022-11-12T10:31:01.206Z,7.07
2022-11-12T10:33:31.957Z,6.93
2022-11-12T10:36:17.020Z,7.20
2022-11-12T10:38:47.767Z,6.87
2022-11-12T10:41:23.651Z,7.38
2022-11-12T10:43:59.264Z,7.40
2022-11-12T10:46:32.256Z,7.70
2022-11-12T10:49:05.528Z,6.63
2022-11-12T10:51:35.448Z,7.30
2022-11-12T10:54:37.523Z,6.65
2022-11-12T10:57:24.370Z,6.22
2022-11-12T11:00:17.040Z,7.18
2022-11-12T11:02:51.181Z,5.70
2022-11-12T11:05:26.608Z,5.90
2022-11-12T11:07:53.048Z,6.05
2022-11-12T11:10:26.338Z,5.57
2022-11-12T11:13:27.284Z,5.03
2022-11-12T11:16:01.812Z,4.70
2022-11-12T11:18:35.991Z,4.73
2022-11-12T11:21:50.409Z,5.13
2022-11-12T11:24:36.888Z,4.95
2022-11-12T11:27:40.657Z,4.88
2022-11-12T11:30:12.302Z,5.00
2022-11-12T11:33:06.735Z,4.53
2022-11-12T11:36:07.504Z,4.53
2022-11-12T11:38:59.749Z,4.78
2022-11-12T11:41:47.694Z,4.53
2022-11-12T11:44:27.221Z,4.65
2022-11-12T11:47:15.549Z,4.33
2022-11-12T11:50:13.082Z,4.68
2022-11-12T11:53:16.164Z,5.20
2022-11-12T11:55:59.734Z,4.38
2022-11-12T11:58:35.091Z,4.50
2022-11-12T12:01:25.723Z,4.37
2022-11-12T12:04:18.887Z,4.10
2022-11-12T12:07:06.621Z,4.38
2022-11-12T12:09:42.552Z,4.70
2022-11-12T12:12:19.036Z,4.88
2022-11-12T12:14:51.618Z,4.50
2022-11-12T12:17:30.692Z,4.05
2022-11-12T12:20:24.932Z,4.30
2022-11-12T12:23:02.570Z,3.33
2022-11-12T12:25:39.641Z,3.85
2022-11-12T12:28:29.667Z,3.63
2022-11-12T12:31:01.107Z,3.47
2022-11-12T12:33:34.124Z,3.60
2022-11-12T12:36:11.588Z,3.50
2022-11-12T12:38:42.191Z,3.22
2022-11-12T12:41:33.607Z,3.20
2022-11-12T12:44:09.208Z,3.00
2022-11-12T12:46:49.482Z,3.30
2022-11-12T12:49:22.303Z,3.72
2022-11-12T12:51:54.469Z,3.65
2022-11-12T12:54:40.428Z,3.63
2022-11-12T12:57:25.627Z,4.13
2022-11-12T13:00:29.018Z,4.20
2022-11-12T13:02:55.773Z,4.32
2022-11-12T13:05:25.788Z,4.80
2022-11-12T13:07:53.142Z,4.37
2022-11-12T13:10:47.415Z,4.50
2022-11-12T13:13:19.748Z,4.32
2022-11-12T13:15:54.341Z,4.22
2022-11-12T13:18:38.818Z,4.63
2022-11-12T13:21:14.488Z,4.67
2022-11-12T13:24:07.308Z,4.88
2022-11-12T13:26:39.767Z,4.53
2022-11-12T13:29:24.572Z,3.95
2022-11-12T13:32:36.909Z,4.28
2022-11-12T13:35:17.957Z,4.40
2022-11-12T13:37:45.155Z,4.50
2022-11-12T13:40:20.323Z,5.00
2022-11-12T13:42:50.185Z,5.00
2022-11-12T13:45:19.423Z,5.20
2022-11-12T13:47:46.329Z,5.40
2022-11-12T13:50:20.765Z,5.05
2022-11-12T13:52:48.516Z,5.43
2022-11-12T13:55:22.708Z,5.07
2022-11-12T13:57:51.352Z,5.55
2022-11-12T14:00:17.757Z,5.37
2022-11-12T14:02:48.003Z,5.05
2022-11-12T14:05:17.572Z,5.30
2022-11-12T14:07:54.999Z,5.38
2022-11-12T14:10:35.157Z,5.72
2022-11-12T14:13:19.927Z,7.73
2022-11-12T14:16:23.709Z,7.53
2022-11-12T14:19:22.049Z,9.50
2022-11-12T14:22:18.669Z,9.07
2022-11-12T14:24:48.170Z,12.02
2022-11-12T14:27:34.324Z,12.43
2022-11-12T14:30:19.244Z,11.48
2022-11-12T14:32:47.959Z,10.73
2022-11-12T14:35:31.523Z,11.13
2022-11-12T14:38:00.698Z,10.02
2022-11-12T14:40:29.573Z,9.80
2022-11-12T14:42:56.715Z,9.18
2022-11-12T14:45:23.812Z,8.85
2022-11-12T14:47:52.715Z,8.05
2022-11-12T14:50:43.225Z,7.00
2022-11-12T14:53:27.762Z,6.43
2022-11-12T14:55:56.755Z,7.20
2022-11-12T14:58:24.681Z,6.75
2022-11-12T15:00:53.676Z,6.60
2022-11-12T15:03:24.402Z,6.68
2022-11-12T15:06:11.125Z,6.33
2022-11-12T15:08:40.089Z,5.95
2022-11-12T15:11:24.013Z,6.30
2022-11-12T15:13:52.961Z,5.90
2022-11-12T15:16:36.052Z,6.88
2022-11-12T15:19:17.361Z,6.70
2022-11-12T15:21:50.345Z,6.63
2022-11-12T15:24:27.327Z,6.78
2022-11-12T15:26:55.779Z,7.65
2022-11-12T15:29:27.566Z,7.82
2022-11-12T15:32:13.512Z,7.73
2022-11-12T15:34:40.526Z,7.57
2022-11-12T15:37:29.790Z,7.97
2022-11-12T15:40:03.780Z,7.22
2022-11-12T15:42:42.514Z,7.15
2022-11-12T15:45:18.209Z,6.13
2022-11-12T15:47:44.716Z,6.20
2022-11-12T15:50:15.896Z,5.78
2022-11-12T15:52:42.511Z,6.25
2022-11-12T15:55:11.151Z,6.80
2022-11-12T15:57:45.147Z,6.50
2022-11-12T16:00:23.457Z,5.82
2022-11-12T16:02:59.256Z,6.50
2022-11-12T16:05:26.141Z,7.13
2022-11-12T16:07:52.573Z,7.22
2022-11-12T16:10:19.509Z,7.83
2022-11-12T16:12:51.091Z,8.48
2022-11-12T16:15:20.469Z,8.60
2022-11-12T16:17:47.972Z,8.93
2022-11-12T16:20:15.807Z,8.50
2022-11-12T16:22:42.356Z,7.30
2022-11-12T16:25:09.364Z,7.95
2022-11-12T16:27:38.792Z,7.28
2022-11-12T16:30:13.201Z,7.07
2022-11-12T16:32:39.668Z,7.32
2022-11-12T16:35:06.437Z,7.30
2022-11-12T16:37:32.969Z,7.18
2022-11-12T16:39:59.477Z,7.10
2022-11-12T16:42:26.137Z,6.40
2022-11-12T16:44:52.967Z,6.22
2022-11-12T16:47:19.524Z,5.50
2022-11-12T16:49:46.228Z,6.10
2022-11-12T16:52:12.858Z,6.53
2022-11-12T16:54:39.311Z,6.05
2022-11-12T16:57:05.835Z,6.32
2022-11-12T16:59:32.301Z,6.53
2022-11-12T17:01:58.913Z,7.35
2022-11-12T17:04:25.465Z,6.82
2022-11-12T17:06:51.986Z,6.97
2022-11-12T17:09:18.671Z,6.32
2022-11-12T17:11:45.102Z,6.37
2022-11-12T17:14:11.578Z,5.88
2022-11-12T17:16:38.045Z,5.57
2022-11-12T17:19:05.571Z,5.68
2022-11-12T17:21:32.020Z,5.35
2022-11-12T17:23:58.533Z,5.43
2022-11-12T17:26:25.054Z,6.13
2022-11-12T17:28:57.536Z,4.90
2022-11-12T17:31:26.365Z,5.70
2022-11-12T17:33:53.515Z,4.93
2022-11-12T17:36:22.369Z,4.60
2022-11-12T17:38:49.356Z,5.35
2022-11-12T17:41:15.873Z,6.95
2022-11-12T17:43:42.396Z,6.97
2022-11-12T17:46:10.261Z,6.68
2022-11-12T17:48:37.493Z,6.60
2022-11-12T17:51:15.545Z,7.38
2022-11-12T17:53:42.612Z,7.05
2022-11-12T17:56:11.782Z,7.68
2022-11-12T17:58:38.258Z,6.70
2022-11-12T18:01:15.398Z,7.40
2022-11-12T18:03:44.169Z,8.40
2022-11-12T18:06:12.697Z,8.93
2022-11-12T18:08:40.870Z,7.25
2022-11-12T18:11:08.362Z,5.95
2022-11-12T18:13:35.045Z,9.13
2022-11-12T18:16:02.318Z,9.27
2022-11-12T18:18:30.036Z,7.78
2022-11-12T18:20:57.048Z,7.78
2022-11-12T18:23:24.014Z,8.43
2022-11-12T18:25:50.743Z,8.03
2022-11-12T18:28:17.203Z,7.03
2022-11-12T18:30:43.645Z,6.70
2022-11-12T18:33:10.429Z,5.93
2022-11-12T18:35:37.088Z,7.43
2022-11-12T18:38:03.543Z,5.97
2022-11-12T18:40:30.044Z,7.13
2022-11-12T18:42:56.551Z,6.85
2022-11-12T18:45:23.143Z,7.68
2022-11-12T18:47:49.581Z,8.02
2022-11-12T18:50:16.506Z,7.87
2022-11-12T18:52:43.485Z,8.60
2022-11-12T18:55:10.248Z,9.48
2022-11-12T18:57:36.930Z,9.27
2022-11-12T19:00:04.067Z,8.38
2022-11-12T19:02:30.769Z,9.90
2022-11-12T19:04:57.257Z,8.07
2022-11-12T19:07:23.770Z,7.47
2022-11-12T19:09:50.272Z,6.00
2022-11-12T19:12:16.727Z,6.45
2022-11-12T19:14:43.168Z,6.87
2022-11-12T19:17:09.601Z,6.57
2022-11-12T19:19:36.050Z,6.72
2022-11-12T19:22:02.502Z,5.30
2022-11-12T19:24:30.647Z,5.95
2022-11-12T19:26:57.551Z,7.80
2022-11-12T19:29:23.988Z,9.45
2022-11-12T19:31:50.493Z,9.82
2022-11-12T19:34:16.899Z,9.43
2022-11-12T19:36:43.300Z,9.25
2022-11-12T19:39:09.797Z,9.57
2022-11-12T19:41:36.239Z,9.45
2022-11-12T19:44:02.833Z,9.40
2022-11-12T19:46:30.885Z,9.63
2022-11-12T19:48:57.474Z,9.05
2022-11-12T19:51:24.521Z,9.13
2022-11-12T19:53:51.069Z,9.35
2022-11-12T19:56:18.703Z,9.02
2022-11-12T19:58:46.286Z,9.85
2022-11-12T20:01:14.706Z,8.68
2022-11-12T20:03:41.449Z,8.70
2022-11-12T20:06:11.204Z,8.98
2022-11-12T20:08:38.337Z,8.27
2022-11-12T20:11:05.482Z,10.65
2022-11-12T20:13:32.438Z,11.52
2022-11-12T20:15:59.328Z,10.53
2022-11-12T20:18:26.046Z,9.88
2022-11-12T20:20:57.285Z,9.60
2022-11-12T20:23:26.256Z,10.07
2022-11-12T20:25:53.357Z,11.70
2022-11-12T20:28:19.840Z,11.83
2022-11-12T20:30:46.426Z,11.60
2022-11-12T20:33:14.108Z,12.25
2022-11-12T20:35:40.569Z,10.88
2022-11-12T20:38:07.133Z,11.35
2022-11-12T20:40:33.621Z,9.73
2022-11-12T20:43:00.104Z,10.40
2022-11-12T20:45:27.213Z,10.80
2022-11-12T20:47:56.161Z,10.40
2022-11-12T20:50:23.071Z,8.90
2022-11-12T20:52:49.469Z,7.60
2022-11-12T20:55:16.106Z,8.05
2022-11-12T20:57:42.571Z,7.80
2022-11-12T21:00:13.497Z,7.68
2022-11-12T21:02:40.677Z,16.58
2022-11-12T21:05:07.400Z,16.37
2022-11-12T21:07:33.923Z,14.10
2022-11-12T21:10:00.481Z,11.02
2022-11-12T21:12:27.339Z,7.70
2022-11-12T21:14:53.752Z,7.18
2022-11-12T21:17:20.458Z,8.20
2022-11-12T21:19:46.933Z,8.63
2022-11-12T21:22:15.477Z,7.18
2022-11-12T21:24:42.218Z,8.18
2022-11-12T21:27:08.861Z,8.27
2022-11-12T21:29:35.322Z,10.03
2022-11-12T21:32:01.761Z,9.63
2022-11-12T21:34:28.286Z,9.45
2022-11-12T21:36:54.802Z,9.40
2022-11-12T21:39:21.549Z,9.75
2022-11-12T21:41:48.110Z,8.40
2022-11-12T21:44:14.532Z,9.52
2022-11-12T21:46:41.055Z,8.77
2022-11-12T21:49:07.538Z,8.52
2022-11-12T21:51:34.077Z,8.63
2022-11-12T21:54:06.333Z,8.30
2022-11-12T21:56:34.099Z,7.78
2022-11-12T21:59:01.582Z,6.68
2022-11-12T22:01:34.206Z,7.97
2022-11-12T22:04:04.197Z,8.48
2022-11-12T22:06:30.649Z,10.77
2022-11-12T22:08:58.394Z,11.25
2022-11-12T22:11:25.683Z,12.05
2022-11-12T22:13:52.200Z,14.30
2022-11-12T22:16:24.193Z,15.70
2022-11-12T22:18:52.961Z,17.10
2022-11-12T22:21:28.780Z,13.43
2022-11-12T22:23:56.823Z,12.43
2022-11-12T22:26:26.885Z,11.85
2022-11-12T22:28:57.490Z,11.63
2022-11-12T22:31:29.638Z,11.13
2022-11-12T22:33:58.141Z,11.77
2022-11-12T22:36:27.280Z,10.90
2022-11-12T22:38:54.869Z,11.15
2022-11-12T22:41:26.285Z,11.32
2022-11-12T22:43:54.826Z,10.43
2022-11-12T22:46:24.027Z,9.95
2022-11-12T22:48:50.866Z,10.18
2022-11-12T22:51:20.224Z,9.00
2022-11-12T22:53:47.101Z,7.70
2022-11-12T22:56:15.975Z,7.37
2022-11-12T22:58:44.778Z,7.43
2022-11-12T23:01:21.628Z,6.93
2022-11-12T23:03:49.264Z,7.45
2022-11-12T23:06:16.559Z,7.38
2022-11-12T23:08:43.505Z,7.53
2022-11-12T23:11:12.395Z,6.90
2022-11-12T23:13:39.349Z,8.40
2022-11-12T23:16:11.540Z,6.30
2022-11-12T23:18:38.015Z,6.20
2022-11-12T23:21:12.313Z,6.20
2022-11-12T23:23:39.145Z,6.55
2022-11-12T23:26:12.489Z,6.15
2022-11-12T23:28:39.247Z,7.18
2022-11-12T23:31:09.906Z,7.68
2022-11-12T23:33:36.319Z,7.63
2022-11-12T23:36:10.685Z,7.80
2022-11-12T23:38:37.507Z,8.00
2022-11-12T23:41:04.685Z,6.15
2022-11-12T23:43:31.535Z,6.03
2022-11-12T23:45:58.511Z,6.57
2022-11-12T23:48:26.192Z,6.88
2022-11-12T23:51:01.253Z,6.70
2022-11-12T23:53:27.733Z,7.07
2022-11-12T23:55:54.300Z,6.32
2022-11-12T23:58:20.777Z,6.00
